Time;durP1;ratioP1;P1;durP2;ratioP2;P2;SDS_P1;SDS_P2;PMS_P1;PMS_P2;Temp;Humidity;BMP_temperature;BMP_pressure;BME280_temperature;BME280_humidity;BME280_pressure;Samples;Min_cycle;Max_cycle;Signal;HPM_P1;HPM_P2
2021/09/14 00:00:21;;;;;;;;;7.00;7.00;;;;;24.77;46.25;100638.25;5077411;28;45539;-49
2021/09/14 00:02:48;;;;;;;;;9.25;8.00;;;;;24.77;46.19;100629.44;5077249;28;46332;-52
2021/09/14 00:05:13;;;;;;;;;7.75;7.75;;;;;24.77;46.24;100637.38;5076780;28;45397;-54
2021/09/14 00:07:39;;;;;;;;;7.75;7.75;;;;;24.76;46.21;100635.69;5077120;28;45417;-44
2021/09/14 00:10:06;;;;;;;;;7.00;7.00;;;;;24.76;45.81;100641.84;5077321;28;45551;-46
2021/09/14 00:12:32;;;;;;;;;9.00;7.00;;;;;24.75;46.10;100650.75;5058632;28;46833;-48
2021/09/14 00:14:57;;;;;;;;;8.25;8.25;;;;;24.74;46.36;100641.13;5076939;28;45336;-47
2021/09/14 00:17:22;;;;;;;;;6.50;6.00;;;;;24.76;46.25;100651.59;5075998;28;45242;-48
2021/09/14 00:19:48;;;;;;;;;11.00;9.00;;;;;24.74;45.83;100649.06;5077089;28;45253;-47
2021/09/14 00:22:13;;;;;;;;;12.75;9.00;;;;;24.75;45.91;100644.63;5076755;28;46769;-53
2021/09/14 00:24:38;;;;;;;;;10.00;8.25;;;;;24.72;45.91;100634.25;5076690;28;45166;-58
2021/09/14 00:27:04;;;;;;;;;6.00;6.00;;;;;24.75;46.40;100637.50;5076849;28;45262;-49
2021/09/14 00:29:29;;;;;;;;;7.25;7.25;;;;;24.76;45.94;100635.69;5077043;28;45205;-45
2021/09/14 00:31:54;;;;;;;;;7.50;7.50;;;;;24.76;45.89;100638.34;5076550;28;45431;-52
2021/09/14 00:34:20;;;;;;;;;8.00;8.00;;;;;24.74;46.21;100635.81;5076881;28;45363;-51
2021/09/14 00:36:45;;;;;;;;;7.00;7.00;;;;;24.76;46.14;100643.66;5076771;28;45178;-55
2021/09/14 00:39:10;;;;;;;;;10.00;8.50;;;;;24.76;45.82;100644.50;5076762;28;45491;-54
2021/09/14 00:41:36;;;;;;;;;8.50;8.50;;;;;24.75;46.41;100639.34;5076471;28;46348;-57
2021/09/14 00:44:02;;;;;;;;;10.75;8.75;;;;;24.76;46.51;100638.34;5076371;28;45280;-56
2021/09/14 00:46:28;;;;;;;;;8.25;8.25;;;;;24.75;46.09;100637.50;5076543;28;45362;-53
2021/09/14 00:48:54;;;;;;;;;7.75;7.75;;;;;24.76;46.03;100641.84;5076838;28;45481;-49
2021/09/14 00:51:20;;;;;;;;;9.00;9.00;;;;;24.76;46.46;100641.00;5076524;28;46232;-54
2021/09/14 00:53:47;;;;;;;;;8.00;8.00;;;;;24.76;46.40;100641.00;5076374;28;45759;-54
2021/09/14 00:56:14;;;;;;;;;7.50;7.50;;;;;24.76;46.50;100641.00;5076470;28;45408;-53
2021/09/14 00:58:40;;;;;;;;;9.50;8.00;;;;;24.75;45.87;100629.56;5076577;28;45291;-52
2021/09/14 01:01:05;;;;;;;;;10.00;8.50;;;;;24.75;46.30;100636.69;5076070;28;46366;-44
2021/09/14 01:03:31;;;;;;;;;9.50;8.25;;;;;24.75;46.57;100645.47;5076146;28;45316;-43
2021/09/14 01:05:56;;;;;;;;;7.50;7.50;;;;;24.74;46.08;100649.06;5076298;28;45231;-45
2021/09/14 01:08:22;;;;;;;;;8.25;8.25;;;;;24.75;46.03;100655.25;5076805;28;45613;-47
2021/09/14 01:10:47;;;;;;;;;5.00;5.00;;;;;24.75;46.39;100647.28;5075916;28;46538;-51
2021/09/14 01:13:13;;;;;;;;;9.00;7.25;;;;;24.75;46.29;100642.00;5075986;28;45323;-44
2021/09/14 01:15:38;;;;;;;;;10.00;8.50;;;;;24.74;46.01;100649.06;5076088;28;45422;-44
2021/09/14 01:18:04;;;;;;;;;8.50;8.50;;;;;24.76;46.27;100641.84;5076026;28;45553;-47
2021/09/14 01:20:30;;;;;;;;;11.00;8.75;;;;;24.77;45.95;100654.16;5075712;28;46975;-51
2021/09/14 01:22:55;;;;;;;;;10.00;7.00;;;;;24.75;46.09;100650.75;5076190;28;45447;-46
2021/09/14 01:25:22;;;;;;;;;8.75;7.25;;;;;24.76;46.33;100651.59;5076353;28;45432;-47
2021/09/14 01:27:49;;;;;;;;;7.25;7.25;;;;;24.76;46.48;100663.06;5076340;28;45240;-49
2021/09/14 01:30:22;;;;;;;;;8.00;7.00;;;;;24.74;45.92;100654.38;5079308;28;46325;-45
2021/09/14 01:32:51;;;;;;;;;11.00;7.75;;;;;24.75;46.52;100663.19;5079415;28;45414;-45
2021/09/14 01:35:18;;;;;;;;;8.00;8.00;;;;;24.75;46.47;100668.50;5079442;28;45259;-47
2021/09/14 01:37:44;;;;;;;;;8.00;8.00;;;;;24.75;46.42;100668.50;5079623;28;45290;-47
2021/09/14 01:40:10;;;;;;;;;9.50;8.50;;;;;24.75;46.59;100676.44;5079277;28;45267;-48
2021/09/14 01:42:36;;;;;;;;;7.75;7.75;;;;;24.76;46.70;100678.09;5079253;28;45312;-46
2021/09/14 01:45:04;;;;;;;;;9.00;9.00;;;;;24.76;46.53;100694.00;5079251;28;45427;-44
2021/09/14 01:47:29;;;;;;;;;7.25;6.00;;;;;24.73;46.10;100699.56;5079379;28;45237;-45
2021/09/14 01:49:55;;;;;;;;;9.75;8.00;;;;;24.76;45.93;100712.56;5079328;28;45348;-47
2021/09/14 01:52:20;;;;;;;;;9.00;9.00;;;;;24.76;46.20;100716.06;5079202;28;45331;-53
2021/09/14 01:54:47;;;;;;;;;8.00;7.50;;;;;24.76;46.07;100723.16;5079108;28;45598;-54
2021/09/14 01:57:13;;;;;;;;;9.00;7.25;;;;;24.75;46.14;100724.16;5079183;28;45504;-46
2021/09/14 01:59:39;;;;;;;;;7.00;7.00;;;;;24.75;46.32;100719.69;5078859;28;46617;-50
2021/09/14 02:04:51;;;;;;;;;8.50;8.50;;;;;24.75;46.60;100724.97;5078918;28;45426;-53
2021/09/14 02:23:58;;;;;;;;;8.25;8.25;;;;;24.74;46.83;100703.91;5078677;28;45749;-45
2021/09/14 02:56:38;;;;;;;;;8.25;7.00;;;;;24.66;47.22;100636.38;5078365;28;45327;-49
2021/09/14 02:59:03;;;;;;;;;5.50;5.25;;;;;24.67;47.16;100622.16;5077906;28;45370;-45
2021/09/14 03:01:28;;;;;;;;;7.75;7.75;;;;;24.66;47.36;100604.56;5078673;28;45215;-48
2021/09/14 03:03:55;;;;;;;;;6.00;6.00;;;;;24.66;47.39;100609.88;5077931;28;45488;-49
2021/09/14 03:06:21;;;;;;;;;9.00;8.50;;;;;24.67;46.87;100594.84;5077924;28;45394;-46
2021/09/14 03:08:49;;;;;;;;;7.75;7.75;;;;;24.67;47.28;100598.31;5078066;28;45371;-47
2021/09/14 03:11:17;;;;;;;;;8.25;8.25;;;;;24.67;46.81;100600.13;5078236;28;45570;-44
2021/09/14 03:13:43;;;;;;;;;9.00;8.00;;;;;24.66;46.77;100599.28;5077741;28;45409;-45
2021/09/14 03:16:10;;;;;;;;;10.50;8.75;;;;;24.68;46.76;100613.28;5077755;28;45289;-47
2021/09/14 03:18:36;;;;;;;;;9.50;9.00;;;;;24.67;46.92;100610.72;5077911;28;45293;-48
2021/09/14 03:21:04;;;;;;;;;8.00;8.00;;;;;24.66;46.96;100606.38;5077854;28;45234;-44
2021/09/14 03:23:30;;;;;;;;;8.25;8.25;;;;;24.67;47.60;100616.88;5077870;28;46393;-44
2021/09/14 03:25:55;;;;;;;;;11.00;11.00;;;;;24.67;47.09;100611.56;5077548;28;45254;-45
2021/09/14 03:28:21;;;;;;;;;9.25;9.25;;;;;24.65;46.85;100602.88;5077787;28;45292;-45
2021/09/14 03:30:48;;;;;;;;;8.00;7.00;;;;;24.67;47.04;100608.91;5078040;28;45370;-44
2021/09/14 03:33:13;;;;;;;;;9.00;7.75;;;;;24.66;47.03;100601.91;5077502;28;46334;-46
2021/09/14 03:35:38;;;;;;;;;10.25;9.50;;;;;24.67;47.17;100590.38;5077403;28;45229;-46
2021/09/14 03:38:04;;;;;;;;;7.50;7.50;;;;;24.66;47.24;100575.41;5077576;28;45212;-47
2021/09/14 03:40:29;;;;;;;;;10.00;8.75;;;;;24.67;47.05;100573.63;5077982;28;45621;-45
2021/09/14 03:42:55;;;;;;;;;9.75;8.00;;;;;24.67;47.08;100569.16;5077333;28;45350;-44
2021/09/14 03:45:20;;;;;;;;;8.00;8.00;;;;;24.67;47.61;100569.16;5077337;28;45231;-46
2021/09/14 03:47:45;;;;;;;;;7.50;7.50;;;;;24.67;47.33;100568.34;5077500;28;45257;-47
2021/09/14 03:50:11;;;;;;;;;8.50;8.50;;;;;24.67;47.99;100574.47;5077593;28;45632;-46
2021/09/14 03:52:37;;;;;;;;;7.25;7.25;;;;;24.67;47.63;100563.03;5077057;28;45433;-46
2021/09/14 03:55:03;;;;;;;;;8.00;7.50;;;;;24.67;47.92;100558.56;5077403;28;45348;-51
2021/09/14 03:57:28;;;;;;;;;8.75;7.75;;;;;24.67;47.58;100558.56;5076480;28;45331;-48
2021/09/14 03:59:54;;;;;;;;;9.50;7.25;;;;;24.67;47.40;100555.91;5077266;28;45303;-47
2021/09/14 04:05:05;;;;;;;;;10.00;8.50;;;;;24.68;47.60;100554.97;5076930;28;45781;-51
2021/09/14 04:10:14;;;;;;;;;9.50;9.00;;;;;24.67;47.92;100563.03;5077061;28;45355;-46
2021/09/14 04:12:40;;;;;;;;;9.75;9.50;;;;;24.68;47.72;100562.06;5076810;28;45796;-49
2021/09/14 04:15:06;;;;;;;;;8.50;8.50;;;;;24.67;48.20;100569.16;5076886;28;45252;-51
2021/09/14 04:17:31;;;;;;;;;11.25;8.00;;;;;24.67;48.23;100565.69;5077201;28;45341;-55
2021/09/14 04:19:56;;;;;;;;;8.50;7.75;;;;;24.67;47.93;100578.94;5076994;28;45519;-50
2021/09/14 04:22:22;;;;;;;;;7.75;7.50;;;;;24.66;48.27;100578.06;5076720;28;46392;-45
2021/09/14 04:24:48;;;;;;;;;10.00;10.00;;;;;24.67;48.36;100584.22;5076770;28;45323;-48
2021/09/14 04:27:13;;;;;;;;;10.50;9.50;;;;;24.66;48.57;100569.28;5076812;28;45391;-45
2021/09/14 04:29:38;;;;;;;;;9.50;9.50;;;;;24.64;49.05;100569.38;5076969;28;45406;-44
2021/09/14 04:32:04;;;;;;;;;11.00;10.25;;;;;24.61;49.06;100574.09;5076791;28;45339;-44
2021/09/14 04:34:29;;;;;;;;;8.75;8.75;;;;;24.55;49.04;100564.81;5076642;28;45299;-45
2021/09/14 04:36:55;;;;;;;;;13.00;10.00;;;;;24.51;49.31;100550.13;5076854;28;45450;-46
2021/09/14 04:39:20;;;;;;;;;10.00;10.00;;;;;24.48;50.27;100531.81;5077048;28;45283;-53
2021/09/14 04:41:46;;;;;;;;;10.25;9.00;;;;;24.45;50.63;100516.16;5076488;28;46716;-50
2021/09/14 04:44:12;;;;;;;;;11.50;10.25;;;;;24.39;50.65;100499.78;5076495;28;45402;-46
2021/09/14 04:46:37;;;;;;;;;10.25;7.25;;;;;24.35;51.16;100474.47;5076631;28;45218;-49
2021/09/14 04:49:04;;;;;;;;;10.00;10.00;;;;;24.34;51.22;100451.59;5077010;28;45304;-45
2021/09/14 04:51:29;;;;;;;;;13.75;13.25;;;;;24.31;51.45;100435.13;5076322;28;46843;-48
2021/09/14 04:53:54;;;;;;;;;20.50;18.00;;;;;24.26;51.51;100435.47;5076262;28;45315;-49
2021/09/14 04:56:20;;;;;;;;;23.00;22.00;;;;;24.28;51.08;100441.50;5076444;28;45409;-46
2021/09/14 04:58:49;;;;;;;;;37.50;34.25;;;;;24.30;51.15;100455.47;5076534;28;45284;-44
2021/09/14 05:01:16;;;;;;;;;44.75;35.75;;;;;24.33;51.37;100470.28;5075886;28;47180;-47
2021/09/14 05:03:41;;;;;;;;;43.00;36.50;;;;;24.39;51.52;100496.28;5077792;28;45813;-45
2021/09/14 05:06:06;;;;;;;;;46.75;39.00;;;;;24.43;51.56;100496.88;5079826;28;45278;-47
2021/09/14 05:08:34;;;;;;;;;46.00;38.75;;;;;24.46;51.60;100491.34;5062170;28;45507;-44
2021/09/14 05:11:00;;;;;;;;;31.25;29.25;;;;;24.46;51.72;100475.44;5079668;28;47021;-45
2021/09/14 05:13:25;;;;;;;;;26.50;23.25;;;;;24.46;51.10;100473.66;5079798;28;45331;-49
2021/09/14 05:15:50;;;;;;;;;24.25;22.75;;;;;24.46;51.60;100496.66;5079782;28;45394;-52
2021/09/14 05:18:17;;;;;;;;;22.50;20.25;;;;;24.44;51.95;100511.81;5079710;28;45413;-44
2021/09/14 05:20:42;;;;;;;;;18.00;18.00;;;;;24.42;51.39;100524.34;5079485;28;46834;-44
2021/09/14 05:23:12;;;;;;;;;18.25;14.75;;;;;24.39;51.79;100528.06;5079537;28;45348;-48
2021/09/14 05:25:39;;;;;;;;;17.75;16.00;;;;;24.35;51.63;100522.16;5079576;28;45339;-44
2021/09/14 05:28:04;;;;;;;;;19.00;18.25;;;;;24.32;51.99;100534.78;5080037;28;45466;-44
2021/09/14 05:30:29;;;;;;;;;13.50;12.50;;;;;24.26;52.35;100538.75;5079306;28;46432;-45
2021/09/14 05:32:55;;;;;;;;;10.75;10.75;;;;;24.17;52.00;100542.94;5079351;28;45296;-46
2021/09/14 05:35:25;;;;;;;;;12.50;11.50;;;;;24.07;52.57;100544.59;5079416;28;45263;-46
2021/09/14 05:37:51;;;;;;;;;13.50;13.00;;;;;23.99;52.79;100563.69;5079640;28;45345;-44
2021/09/14 05:40:16;;;;;;;;;12.50;11.00;;;;;23.90;53.19;100574.94;5079137;28;46529;-49
2021/09/14 05:42:41;;;;;;;;;10.75;10.75;;;;;23.82;53.58;100577.31;5079309;28;45326;-44
2021/09/14 05:45:07;;;;;;;;;14.75;12.50;;;;;23.74;54.04;100584.03;5079614;28;45458;-48
2021/09/14 05:47:32;;;;;;;;;13.75;12.25;;;;;23.65;53.51;100589.97;5079293;28;45360;-45
2021/09/14 05:50:00;;;;;;;;;13.00;12.25;;;;;23.58;53.99;100591.38;5079135;28;45475;-48
2021/09/14 05:52:25;;;;;;;;;15.50;13.00;;;;;23.51;54.00;100611.28;5079012;28;45324;-46
2021/09/14 05:54:50;;;;;;;;;14.00;13.00;;;;;23.45;53.94;100621.34;5079192;28;45335;-49
2021/09/14 05:57:17;;;;;;;;;14.75;11.75;;;;;23.42;54.05;100636.59;5079016;28;45251;-47
2021/09/14 05:59:42;;;;;;;;;11.75;11.75;;;;;23.36;54.33;100632.59;5078603;28;46345;-44
2021/09/14 06:02:07;;;;;;;;;13.75;11.50;;;;;23.30;54.67;100639.16;5079270;28;45257;-50
2021/09/14 06:04:33;;;;;;;;;12.00;12.00;;;;;23.27;54.66;100652.59;5079020;28;45319;-47
2021/09/14 06:06:58;;;;;;;;;13.00;12.00;;;;;23.26;54.80;100650.06;5079098;28;45424;-44
2021/09/14 06:09:23;;;;;;;;;14.00;12.00;;;;;23.25;54.83;100664.22;5078793;28;46626;-49
2021/09/14 06:11:49;;;;;;;;;18.50;15.50;;;;;23.22;54.92;100664.44;5078673;28;45174;-44
2021/09/14 06:14:14;;;;;;;;;13.50;11.50;;;;;23.21;55.38;100665.38;5078357;28;45450;-46
2021/09/14 06:16:39;;;;;;;;;12.00;10.50;;;;;23.17;55.15;100662.94;5094143;27;45596;-50
2021/09/14 06:19:05;;;;;;;;;12.50;12.50;;;;;23.16;55.42;100666.53;5078742;28;47186;-46
2021/09/14 06:21:32;;;;;;;;;10.50;9.50;;;;;23.13;55.15;100672.03;5078889;28;45873;-46
2021/09/14 06:23:57;;;;;;;;;10.75;10.00;;;;;23.12;55.56;100670.31;5078641;28;45478;-51
2021/09/14 06:26:23;;;;;;;;;10.75;10.25;;;;;23.07;55.81;100669.81;5078707;28;45566;-51
2021/09/14 06:28:48;;;;;;;;;10.25;10.25;;;;;23.04;55.69;100663.91;5078514;28;45407;-49
2021/09/14 06:31:14;;;;;;;;;13.25;11.75;;;;;22.99;55.85;100658.91;5078522;28;45271;-48
2021/09/14 06:33:39;;;;;;;;;13.00;11.75;;;;;23.00;56.07;100668.53;5078869;28;45455;-45
2021/09/14 06:36:04;;;;;;;;;10.25;9.50;;;;;22.97;56.17;100666.94;5060499;28;45568;-49
2021/09/14 06:38:30;;;;;;;;;12.25;9.50;;;;;22.94;56.44;100658.38;5078277;28;45322;-44
2021/09/14 06:40:55;;;;;;;;;10.00;8.75;;;;;22.90;56.76;100663.03;5078462;28;45303;-51
2021/09/14 06:43:20;;;;;;;;;10.00;10.00;;;;;22.89;56.67;100673.69;5078504;28;45415;-54
2021/09/14 06:45:46;;;;;;;;;11.75;10.00;;;;;22.86;57.28;100685.34;5078411;28;45366;-49
2021/09/14 06:48:16;;;;;;;;;11.25;11.25;;;;;22.86;57.33;100695.91;5077678;28;45360;-48
2021/09/14 06:50:41;;;;;;;;;11.00;9.50;;;;;22.87;57.50;100705.53;5060257;28;45740;-51
2021/09/14 06:53:06;;;;;;;;;11.25;11.00;;;;;22.93;57.51;100706.91;5078669;28;45219;-44
2021/09/14 06:55:32;;;;;;;;;13.00;11.75;;;;;22.96;57.82;100707.53;5078452;28;45639;-53
2021/09/14 06:57:57;;;;;;;;;14.00;13.25;;;;;22.98;57.74;100713.56;5077940;28;45830;-54
2021/09/14 07:00:22;;;;;;;;;17.00;13.25;;;;;22.98;57.96;100712.75;5077901;28;45356;-51
2021/09/14 07:02:48;;;;;;;;;11.00;10.50;;;;;22.96;57.92;100707.53;5076963;28;45759;-55
2021/09/14 07:05:13;;;;;;;;;11.00;11.00;;;;;22.94;58.29;100712.06;5078173;28;45548;-54
2021/09/14 07:07:38;;;;;;;;;14.25;10.00;;;;;22.92;58.18;100718.44;5078078;28;46374;-50
2021/09/14 07:10:05;;;;;;;;;10.75;10.00;;;;;22.91;58.78;100703.50;5077899;28;45321;-51
2021/09/14 07:12:31;;;;;;;;;15.25;10.75;;;;;22.89;58.92;100694.84;5077932;28;45387;-51
2021/09/14 07:14:56;;;;;;;;;12.00;11.75;;;;;22.87;58.77;100680.91;5078066;28;45538;-48
2021/09/14 07:17:22;;;;;;;;;11.25;11.25;;;;;22.87;58.99;100670.34;5077630;28;46772;-50
2021/09/14 07:19:47;;;;;;;;;12.75;11.50;;;;;22.86;59.01;100640.41;5077792;28;45438;-55
2021/09/14 07:22:13;;;;;;;;;12.00;9.00;;;;;22.85;59.28;100625.50;5059996;28;45431;-55
2021/09/14 07:24:38;;;;;;;;;10.00;10.00;;;;;22.87;59.10;100628.06;5077972;28;45507;-52
2021/09/14 07:27:03;;;;;;;;;11.25;10.25;;;;;22.91;59.19;100624.22;5076857;28;46104;-53
2021/09/14 07:29:31;;;;;;;;;10.50;10.50;;;;;22.96;58.89;100627.41;5059308;28;45469;-54
2021/09/14 07:31:57;;;;;;;;;9.00;8.00;;;;;22.99;58.94;100616.63;5077698;28;45329;-47
2021/09/14 07:34:22;;;;;;;;;10.50;9.25;;;;;23.04;59.21;100624.25;5077884;28;45342;-50
2021/09/14 07:36:47;;;;;;;;;13.00;9.50;;;;;23.08;58.51;100620.44;5077512;28;45361;-52
2021/09/14 07:39:13;;;;;;;;;12.50;11.00;;;;;23.14;58.87;100620.00;5077458;28;52848;-49
2021/09/14 07:41:38;;;;;;;;;10.00;10.00;;;;;23.19;58.31;100632.91;5077607;28;45499;-49
2021/09/14 07:44:03;;;;;;;;;11.75;10.75;;;;;23.24;58.48;100630.81;5077596;28;45252;-48
2021/09/14 07:46:29;;;;;;;;;10.50;9.00;;;;;23.26;58.67;100623.63;5077141;28;45285;-49
2021/09/14 07:48:54;;;;;;;;;11.25;9.75;;;;;23.33;58.35;100626.69;5077453;28;45834;-51
2021/09/14 07:51:19;;;;;;;;;10.75;8.75;;;;;23.36;58.23;100639.69;5077555;28;45901;-51
2021/09/14 07:53:45;;;;;;;;;12.00;9.00;;;;;23.40;57.83;100646.44;5077486;28;45649;-47
2021/09/14 07:56:14;;;;;;;;;10.50;9.75;;;;;23.44;57.97;100653.22;5059067;28;47701;-52
2021/09/14 07:58:39;;;;;;;;;11.75;10.00;;;;;23.46;57.56;100657.44;5076711;28;45343;-53
2021/09/14 08:01:04;;;;;;;;;11.00;10.25;;;;;23.51;57.55;100656.25;5076924;27;45537;-47
2021/09/14 08:03:30;;;;;;;;;13.50;10.75;;;;;23.55;58.08;100660.38;5077403;28;45513;-50
2021/09/14 08:05:56;;;;;;;;;11.50;9.75;;;;;23.58;57.82;100654.88;5076822;28;46800;-47
2021/09/14 08:08:22;;;;;;;;;9.50;9.50;;;;;23.60;58.02;100655.59;5077028;28;45219;-47
2021/09/14 08:10:47;;;;;;;;;11.00;11.00;;;;;23.62;57.67;100651.88;5077146;28;45387;-50
2021/09/14 08:13:12;;;;;;;;;10.50;10.50;;;;;23.65;57.69;100655.28;5077438;28;45315;-55
2021/09/14 08:15:38;;;;;;;;;12.00;9.50;;;;;23.67;57.87;100658.66;5076940;28;45331;-54
2021/09/14 08:18:03;;;;;;;;;12.75;9.75;;;;;23.68;57.57;100661.19;5076830;28;45336;-55
2021/09/14 08:20:28;;;;;;;;;11.50;9.25;;;;;23.70;57.59;100667.22;5092644;27;45358;-45
2021/09/14 08:22:54;;;;;;;;;9.25;9.25;;;;;23.70;57.61;100661.09;5077169;28;45447;-45
2021/09/14 08:25:19;;;;;;;;;10.75;10.25;;;;;23.75;57.46;100675.69;5076506;28;45460;-51
2021/09/14 08:27:45;;;;;;;;;12.25;9.25;;;;;23.78;57.79;100683.38;5077125;28;45251;-47
2021/09/14 08:30:11;;;;;;;;;8.75;8.00;;;;;23.80;57.20;100685.06;5076947;28;45323;-50
2021/09/14 08:32:36;;;;;;;;;11.25;10.25;;;;;23.83;57.16;100685.69;5076947;28;45734;-50
2021/09/14 08:35:02;;;;;;;;;11.75;11.75;;;;;23.86;57.15;100677.53;5076666;28;46068;-48
2021/09/14 08:37:27;;;;;;;;;10.75;10.75;;;;;23.87;57.50;100678.38;5076129;28;45414;-44
2021/09/14 08:39:53;;;;;;;;;9.00;8.25;;;;;23.90;57.47;100684.31;5076024;28;49685;-45
2021/09/14 08:42:20;;;;;;;;;9.00;7.75;;;;;23.90;57.25;100670.22;5076958;28;45434;-48
2021/09/14 08:44:45;;;;;;;;;9.25;9.25;;;;;23.92;57.23;100679.72;5076911;28;46326;-48
2021/09/14 08:47:11;;;;;;;;;12.50;11.50;;;;;23.94;57.54;100688.41;5076531;28;45402;-47
2021/09/14 08:49:36;;;;;;;;;9.00;8.50;;;;;23.94;57.46;100699.00;5076634;28;45332;-49
2021/09/14 08:52:02;;;;;;;;;12.50;11.25;;;;;23.96;57.24;100717.47;5076777;28;45335;-45
2021/09/14 08:54:28;;;;;;;;;9.50;9.50;;;;;23.96;57.07;100717.47;5076351;28;45645;-51
2021/09/14 08:56:53;;;;;;;;;13.00;11.75;;;;;23.99;57.25;100719.03;5076411;28;45317;-44
2021/09/14 08:59:30;;;;;;;;;12.25;9.25;;;;;24.00;57.78;100712.81;5076291;28;45443;-51
2021/09/14 09:02:06;;;;;;;;;12.75;12.75;;;;;24.01;57.33;100712.69;5076777;28;45331;-46
2021/09/14 09:04:32;;;;;;;;;9.50;8.75;;;;;24.02;57.14;100706.44;5076161;28;45609;-51
2021/09/14 09:06:58;;;;;;;;;11.00;9.50;;;;;24.03;57.57;100702.81;5076327;28;45312;-45
2021/09/14 09:09:29;;;;;;;;;10.75;10.25;;;;;24.03;57.11;100702.81;5076426;28;45302;-49
2021/09/14 09:11:55;;;;;;;;;11.25;11.25;;;;;24.05;57.60;100711.50;5076323;28;45333;-45
2021/09/14 09:14:43;;;;;;;;;15.00;15.00;;;;;24.07;57.54;100706.09;5076545;28;45444;-48
2021/09/14 09:17:16;;;;;;;;;10.00;10.00;;;;;24.04;57.05;100704.53;5076124;28;45312;-49
2021/09/14 09:19:44;;;;;;;;;12.25;9.75;;;;;24.07;57.81;100701.66;5076067;28;45322;-45
2021/09/14 09:22:13;;;;;;;;;12.25;11.00;;;;;24.08;57.37;100700.72;5076469;28;45308;-46
2021/09/14 09:24:47;;;;;;;;;12.75;12.75;;;;;24.09;57.90;100697.06;5091311;27;46401;-46
2021/09/14 09:27:14;;;;;;;;;11.25;9.75;;;;;24.06;57.99;100683.22;5091861;27;45339;-47
2021/09/14 09:29:40;;;;;;;;;13.75;11.50;;;;;24.09;57.72;100697.06;5076188;28;45349;-44
2021/09/14 09:32:06;;;;;;;;;14.00;10.75;;;;;24.09;57.98;100699.72;5076173;28;45651;-44
2021/09/14 09:34:32;;;;;;;;;11.25;10.00;;;;;24.09;57.66;100707.66;5075807;28;45692;-46
2021/09/14 09:37:06;;;;;;;;;13.75;12.00;;;;;24.11;57.55;100715.50;5075827;28;45429;-48
2021/09/14 09:39:58;;;;;;;;;13.75;13.25;;;;;24.12;57.83;100714.56;5075919;28;45378;-47
2021/09/14 09:42:29;;;;;;;;;11.25;11.00;;;;;24.13;58.34;100708.31;5073757;28;45399;-42
2021/09/14 09:44:57;;;;;;;;;12.00;10.25;;;;;24.14;58.06;100711.78;5075776;28;45444;-44
2021/09/14 09:47:24;;;;;;;;;11.50;10.00;;;;;24.14;57.81;100706.50;5075745;28;45311;-53
2021/09/14 09:49:49;;;;;;;;;13.25;12.50;;;;;24.15;58.44;100689.66;5077601;28;45401;-51
2021/09/14 09:52:17;;;;;;;;;11.25;11.00;;;;;24.15;58.25;100687.00;5079425;28;45376;-48
2021/09/14 09:54:44;;;;;;;;;12.00;10.00;;;;;24.15;57.91;100689.66;5079065;28;46328;-44
2021/09/14 09:57:10;;;;;;;;;14.75;11.25;;;;;24.16;58.35;100692.19;5077968;28;45403;-50
2021/09/14 09:59:35;;;;;;;;;12.50;12.00;;;;;24.17;58.01;100688.56;5079028;28;45428;-48
2021/09/14 10:02:22;;;;;;;;;13.25;12.00;;;;;24.20;57.93;100692.78;5095072;27;45557;-48
2021/09/14 10:05:02;;;;;;;;;11.25;11.00;;;;;24.21;57.82;100691.84;5079306;28;46242;-46
2021/09/14 10:07:30;;;;;;;;;14.00;14.00;;;;;24.22;57.56;100685.59;5079005;28;45447;-50
2021/09/14 10:09:57;;;;;;;;;15.25;13.00;;;;;24.24;57.73;100683.69;5079318;28;45350;-44
2021/09/14 10:12:29;;;;;;;;;11.25;11.25;;;;;24.26;57.86;100681.75;5079110;28;45564;-46
2021/09/14 10:15:04;;;;;;;;;12.00;11.00;;;;;24.28;57.62;100690.44;5078872;28;46240;-47
2021/09/14 10:17:30;;;;;;;;;10.00;10.00;;;;;24.30;57.70;100687.69;5078743;28;45728;-46
2021/09/14 10:20:07;;;;;;;;;15.75;13.00;;;;;24.30;57.74;100685.88;5078849;28;45308;-47
2021/09/14 10:22:32;;;;;;;;;12.50;10.00;;;;;24.33;57.46;100695.41;5079313;28;45303;-48
2021/09/14 10:25:01;;;;;;;;;14.25;13.00;;;;;24.33;57.82;100698.88;5078800;28;46591;-49
2021/09/14 10:27:39;;;;;;;;;11.50;11.50;;;;;24.35;57.50;100691.66;5078585;28;45766;-50
2021/09/14 10:30:07;;;;;;;;;12.50;12.00;;;;;24.38;57.24;100687.94;5078791;28;45295;-46
2021/09/14 10:32:39;;;;;;;;;12.00;11.25;;;;;24.38;57.54;100691.44;5078980;28;45334;-48
2021/09/14 10:35:04;;;;;;;;;14.25;11.50;;;;;24.40;57.49;100693.97;5078520;28;45270;-51
2021/09/14 10:37:31;;;;;;;;;12.50;11.75;;;;;24.42;57.50;100700.00;5078621;28;45306;-51
2021/09/14 10:40:13;;;;;;;;;13.75;12.75;;;;;24.44;57.32;100697.25;5078667;28;45170;-49
2021/09/14 10:42:44;;;;;;;;;11.00;9.75;;;;;24.43;57.60;100693.75;5078693;28;45240;-50
2021/09/14 10:45:18;;;;;;;;;17.25;11.50;;;;;24.47;57.29;100699.66;5081141;28;46233;-50
2021/09/14 10:47:48;;;;;;;;;14.25;13.25;;;;;24.48;57.22;100701.34;5078243;28;45756;-55
2021/09/14 10:50:34;;;;;;;;;14.25;12.00;;;;;24.48;57.82;100696.06;5078503;28;45367;-55
2021/09/14 10:53:02;;;;;;;;;12.50;11.50;;;;;24.47;57.05;100699.66;5078381;28;45236;-57
2021/09/14 10:55:30;;;;;;;;;11.25;11.25;;;;;24.48;57.38;100699.53;5078281;28;46186;-55
2021/09/14 10:58:01;;;;;;;;;12.00;11.00;;;;;24.47;57.13;100689.06;5078180;28;45340;-52
2021/09/14 11:00:33;;;;;;;;;14.25;12.00;;;;;24.47;57.20;100687.28;5078051;28;45277;-53
2021/09/14 11:03:01;;;;;;;;;11.50;11.50;;;;;24.49;57.33;100687.16;5077869;28;45276;-55
2021/09/14 11:05:28;;;;;;;;;11.50;11.50;;;;;24.49;57.49;100681.84;5077970;28;46518;-55
2021/09/14 11:08:22;;;;;;;;;12.75;11.00;;;;;24.50;57.48;100680.91;5060186;28;45920;-49
2021/09/14 11:10:48;;;;;;;;;10.00;7.75;;;;;24.49;57.15;100672.09;5078413;28;45500;-57
2021/09/14 11:13:22;;;;;;;;;13.00;12.25;;;;;24.52;57.46;100679.81;5078453;28;45415;-52
2021/09/14 11:15:54;;;;;;;;;8.50;8.50;;;;;24.51;57.75;100678.13;5077722;28;46440;-52
2021/09/14 11:18:24;;;;;;;;;12.25;10.00;;;;;24.50;57.55;100673.78;5077870;28;45280;-53
2021/09/14 11:21:00;;;;;;;;;12.00;11.00;;;;;24.54;57.19;100685.00;5078691;28;45391;-49
2021/09/14 11:23:25;;;;;;;;;16.00;11.25;;;;;24.52;57.27;100676.34;5078415;28;45623;-49
2021/09/14 11:26:17;;;;;;;;;13.50;12.75;;;;;24.52;57.13;100682.47;5060563;28;45702;-45
2021/09/14 11:28:59;;;;;;;;;12.75;11.75;;;;;24.55;57.31;100676.09;5078041;28;45753;-56
2021/09/14 11:31:30;;;;;;;;;11.00;11.00;;;;;24.55;57.27;100682.25;5078208;28;45353;-52
2021/09/14 11:33:56;;;;;;;;;14.75;13.25;;;;;24.56;57.28;100680.44;5060101;28;45276;-54
2021/09/14 11:36:22;;;;;;;;;15.25;14.50;;;;;24.57;57.75;100673.34;5077668;28;46185;-49
2021/09/14 11:39:04;;;;;;;;;13.25;11.25;;;;;24.59;57.75;100676.69;5077598;28;45427;-47
2021/09/14 11:41:32;;;;;;;;;17.50;15.00;;;;;24.60;57.48;100679.25;5077462;28;45299;-50
2021/09/14 11:43:58;;;;;;;;;17.50;15.00;;;;;24.61;57.17;100680.09;5077825;28;45561;-47
2021/09/14 11:46:25;;;;;;;;;17.00;15.75;;;;;24.63;57.09;100681.69;5077510;28;46263;-45
2021/09/14 11:48:59;;;;;;;;;17.25;14.00;;;;;24.64;57.66;100678.03;5077194;28;45290;-51
2021/09/14 11:51:30;;;;;;;;;17.00;12.75;;;;;24.66;57.35;100678.78;5077651;28;45347;-53
2021/09/14 11:53:55;;;;;;;;;17.25;15.00;;;;;24.68;57.55;100673.38;5077922;28;45406;-56
2021/09/14 11:56:26;;;;;;;;;14.00;14.00;;;;;24.69;57.31;100677.75;5058941;28;47383;-56
2021/09/14 11:58:51;;;;;;;;;13.00;12.00;;;;;24.69;57.21;100673.28;5077096;28;45256;-53
2021/09/14 12:01:19;;;;;;;;;15.50;11.75;;;;;24.68;57.38;100663.63;5077115;28;45300;-57
2021/09/14 12:03:48;;;;;;;;;15.25;12.00;;;;;24.72;56.84;100666.91;5077346;28;45613;-56
2021/09/14 12:06:21;;;;;;;;;16.25;14.00;;;;;24.72;56.67;100656.28;5076722;28;46937;-53
2021/09/14 12:08:46;;;;;;;;;17.25;14.50;;;;;24.75;56.74;100658.72;5076905;28;45268;-49